sensor_id;sensor_type;location;lat;lon;timestamp;P1;durP1;ratioP1;P2;durP2;ratioP2
53666;SDS011;39568;51.026;5.468;2024-03-22T00:01:42;60.28;;;30.98;;
53666;SDS011;39568;51.026;5.468;2024-03-22T00:04:07;74.30;;;33.28;;
53666;SDS011;39568;51.026;5.468;2024-03-22T00:06:34;65.32;;;30.63;;
53666;SDS011;39568;51.026;5.468;2024-03-22T00:08:59;74.57;;;29.35;;
53666;SDS011;39568;51.026;5.468;2024-03-22T00:11:26;62.83;;;28.80;;
53666;SDS011;39568;51.026;5.468;2024-03-22T00:13:51;66.40;;;29.65;;
53666;SDS011;39568;51.026;5.468;2024-03-22T00:16:19;63.13;;;29.67;;
53666;SDS011;39568;51.026;5.468;2024-03-22T00:18:44;70.57;;;32.17;;
53666;SDS011;39568;51.026;5.468;2024-03-22T00:21:11;71.80;;;29.23;;
53666;SDS011;39568;51.026;5.468;2024-03-22T00:23:36;71.32;;;31.95;;
53666;SDS011;39568;51.026;5.468;2024-03-22T00:26:03;69.90;;;32.00;;
53666;SDS011;39568;51.026;5.468;2024-03-22T00:28:28;68.93;;;30.83;;
53666;SDS011;39568;51.026;5.468;2024-03-22T00:30:54;69.55;;;32.63;;
53666;SDS011;39568;51.026;5.468;2024-03-22T00:33:21;65.22;;;30.30;;
53666;SDS011;39568;51.026;5.468;2024-03-22T00:35:48;72.60;;;31.25;;
53666;SDS011;39568;51.026;5.468;2024-03-22T00:38:13;64.70;;;28.17;;
53666;SDS011;39568;51.026;5.468;2024-03-22T00:40:39;72.22;;;34.25;;
53666;SDS011;39568;51.026;5.468;2024-03-22T00:43:06;59.33;;;27.67;;
53666;SDS011;39568;51.026;5.468;2024-03-22T00:45:32;67.80;;;33.28;;
53666;SDS011;39568;51.026;5.468;2024-03-22T00:47:58;66.13;;;31.77;;
53666;SDS011;39568;51.026;5.468;2024-03-22T00:50:25;58.45;;;30.60;;
53666;SDS011;39568;51.026;5.468;2024-03-22T00:52:51;57.53;;;28.23;;
53666;SDS011;39568;51.026;5.468;2024-03-22T00:55:19;63.40;;;31.23;;
53666;SDS011;39568;51.026;5.468;2024-03-22T00:57:45;64.78;;;28.05;;
53666;SDS011;39568;51.026;5.468;2024-03-22T01:00:12;61.72;;;30.52;;
53666;SDS011;39568;51.026;5.468;2024-03-22T01:02:38;73.13;;;31.95;;
53666;SDS011;39568;51.026;5.468;2024-03-22T01:05:04;65.47;;;32.55;;
53666;SDS011;39568;51.026;5.468;2024-03-22T01:07:31;64.93;;;33.42;;
53666;SDS011;39568;51.026;5.468;2024-03-22T01:09:58;63.17;;;28.98;;
53666;SDS011;39568;51.026;5.468;2024-03-22T01:12:23;69.57;;;31.50;;
53666;SDS011;39568;51.026;5.468;2024-03-22T01:14:50;59.33;;;31.15;;
53666;SDS011;39568;51.026;5.468;2024-03-22T01:17:15;62.42;;;32.33;;
53666;SDS011;39568;51.026;5.468;2024-03-22T01:19:42;65.68;;;32.88;;
53666;SDS011;39568;51.026;5.468;2024-03-22T01:22:07;61.97;;;32.63;;
53666;SDS011;39568;51.026;5.468;2024-03-22T01:24:35;65.13;;;31.40;;
53666;SDS011;39568;51.026;5.468;2024-03-22T01:27:00;77.20;;;34.28;;
53666;SDS011;39568;51.026;5.468;2024-03-22T01:29:27;70.07;;;32.15;;
53666;SDS011;39568;51.026;5.468;2024-03-22T01:31:55;57.60;;;29.70;;
53666;SDS011;39568;51.026;5.468;2024-03-22T01:34:21;60.30;;;29.63;;
53666;SDS011;39568;51.026;5.468;2024-03-22T01:36:47;66.43;;;31.40;;
53666;SDS011;39568;51.026;5.468;2024-03-22T01:39:13;69.10;;;30.33;;
53666;SDS011;39568;51.026;5.468;2024-03-22T01:41:40;63.17;;;30.92;;
53666;SDS011;39568;51.026;5.468;2024-03-22T01:44:07;71.68;;;31.70;;
53666;SDS011;39568;51.026;5.468;2024-03-22T01:46:32;61.92;;;27.52;;
53666;SDS011;39568;51.026;5.468;2024-03-22T01:48:59;64.40;;;33.15;;
53666;SDS011;39568;51.026;5.468;2024-03-22T01:51:24;81.70;;;34.95;;
53666;SDS011;39568;51.026;5.468;2024-03-22T01:53:51;50.53;;;25.90;;
53666;SDS011;39568;51.026;5.468;2024-03-22T01:56:17;65.60;;;30.15;;
53666;SDS011;39568;51.026;5.468;2024-03-22T01:58:45;66.32;;;32.35;;
53666;SDS011;39568;51.026;5.468;2024-03-22T02:01:11;64.35;;;30.90;;
53666;SDS011;39568;51.026;5.468;2024-03-22T02:03:37;64.38;;;29.52;;
53666;SDS011;39568;51.026;5.468;2024-03-22T02:06:02;67.00;;;27.92;;
53666;SDS011;39568;51.026;5.468;2024-03-22T02:08:29;39.97;;;21.60;;
53666;SDS011;39568;51.026;5.468;2024-03-22T02:10:55;62.33;;;30.05;;
53666;SDS011;39568;51.026;5.468;2024-03-22T02:13:21;59.92;;;31.67;;
53666;SDS011;39568;51.026;5.468;2024-03-22T02:15:48;63.33;;;30.60;;
53666;SDS011;39568;51.026;5.468;2024-03-22T02:18:15;73.57;;;34.85;;
53666;SDS011;39568;51.026;5.468;2024-03-22T02:20:40;62.50;;;30.83;;
53666;SDS011;39568;51.026;5.468;2024-03-22T02:23:06;60.55;;;34.17;;
53666;SDS011;39568;51.026;5.468;2024-03-22T02:25:33;69.43;;;31.67;;
53666;SDS011;39568;51.026;5.468;2024-03-22T02:28:00;63.40;;;31.27;;
53666;SDS011;39568;51.026;5.468;2024-03-22T02:30:25;68.03;;;32.40;;
53666;SDS011;39568;51.026;5.468;2024-03-22T02:32:51;60.65;;;29.98;;
53666;SDS011;39568;51.026;5.468;2024-03-22T02:35:17;61.15;;;30.52;;
53666;SDS011;39568;51.026;5.468;2024-03-22T02:37:43;67.32;;;28.67;;
53666;SDS011;39568;51.026;5.468;2024-03-22T02:40:09;65.55;;;30.45;;
53666;SDS011;39568;51.026;5.468;2024-03-22T02:42:37;61.30;;;34.78;;
53666;SDS011;39568;51.026;5.468;2024-03-22T02:45:03;56.80;;;28.85;;
53666;SDS011;39568;51.026;5.468;2024-03-22T02:47:29;36.80;;;22.10;;
53666;SDS011;39568;51.026;5.468;2024-03-22T02:49:54;55.53;;;25.27;;
53666;SDS011;39568;51.026;5.468;2024-03-22T02:52:21;41.80;;;20.60;;
53666;SDS011;39568;51.026;5.468;2024-03-22T02:54:46;57.55;;;24.70;;
53666;SDS011;39568;51.026;5.468;2024-03-22T02:57:13;50.50;;;23.25;;
53666;SDS011;39568;51.026;5.468;2024-03-22T02:59:39;61.88;;;25.73;;
53666;SDS011;39568;51.026;5.468;2024-03-22T03:02:06;64.38;;;32.38;;
53666;SDS011;39568;51.026;5.468;2024-03-22T03:04:31;52.70;;;26.48;;
53666;SDS011;39568;51.026;5.468;2024-03-22T03:06:58;52.42;;;28.55;;
53666;SDS011;39568;51.026;5.468;2024-03-22T03:09:23;57.85;;;29.55;;
53666;SDS011;39568;51.026;5.468;2024-03-22T03:11:50;59.47;;;28.92;;
53666;SDS011;39568;51.026;5.468;2024-03-22T03:14:15;58.42;;;29.15;;
53666;SDS011;39568;51.026;5.468;2024-03-22T03:16:43;53.97;;;24.60;;
53666;SDS011;39568;51.026;5.468;2024-03-22T03:19:09;53.25;;;26.90;;
53666;SDS011;39568;51.026;5.468;2024-03-22T03:21:35;48.45;;;25.08;;
53666;SDS011;39568;51.026;5.468;2024-03-22T03:24:00;54.28;;;23.10;;
53666;SDS011;39568;51.026;5.468;2024-03-22T03:26:27;63.35;;;30.52;;
53666;SDS011;39568;51.026;5.468;2024-03-22T03:28:52;59.13;;;28.42;;
53666;SDS011;39568;51.026;5.468;2024-03-22T03:31:20;58.75;;;28.25;;
53666;SDS011;39568;51.026;5.468;2024-03-22T03:33:47;54.33;;;27.08;;
53666;SDS011;39568;51.026;5.468;2024-03-22T03:36:13;58.92;;;29.92;;
53666;SDS011;39568;51.026;5.468;2024-03-22T03:38:38;54.80;;;30.27;;
53666;SDS011;39568;51.026;5.468;2024-03-22T03:41:06;60.83;;;30.52;;
53666;SDS011;39568;51.026;5.468;2024-03-22T03:43:32;55.15;;;29.25;;
53666;SDS011;39568;51.026;5.468;2024-03-22T03:45:58;47.97;;;23.45;;
53666;SDS011;39568;51.026;5.468;2024-03-22T03:48:25;60.65;;;26.88;;
53666;SDS011;39568;51.026;5.468;2024-03-22T03:50:53;50.45;;;26.05;;
53666;SDS011;39568;51.026;5.468;2024-03-22T03:53:19;58.53;;;26.98;;
53666;SDS011;39568;51.026;5.468;2024-03-22T03:55:46;49.10;;;28.40;;
53666;SDS011;39568;51.026;5.468;2024-03-22T03:58:11;45.42;;;27.17;;
53666;SDS011;39568;51.026;5.468;2024-03-22T04:00:38;40.75;;;20.33;;
53666;SDS011;39568;51.026;5.468;2024-03-22T04:03:03;54.78;;;27.17;;
53666;SDS011;39568;51.026;5.468;2024-03-22T04:05:30;53.53;;;27.65;;
53666;SDS011;39568;51.026;5.468;2024-03-22T04:07:56;45.97;;;25.40;;
53666;SDS011;39568;51.026;5.468;2024-03-22T04:10:23;54.45;;;28.40;;
53666;SDS011;39568;51.026;5.468;2024-03-22T04:12:48;32.90;;;19.40;;
53666;SDS011;39568;51.026;5.468;2024-03-22T04:15:15;45.72;;;20.88;;
53666;SDS011;39568;51.026;5.468;2024-03-22T04:17:40;44.40;;;23.58;;
53666;SDS011;39568;51.026;5.468;2024-03-22T04:20:07;53.50;;;26.30;;
53666;SDS011;39568;51.026;5.468;2024-03-22T04:22:33;37.72;;;22.90;;
53666;SDS011;39568;51.026;5.468;2024-03-22T04:25:01;57.55;;;26.60;;
53666;SDS011;39568;51.026;5.468;2024-03-22T04:27:26;49.72;;;23.55;;
53666;SDS011;39568;51.026;5.468;2024-03-22T04:29:53;41.22;;;22.17;;
53666;SDS011;39568;51.026;5.468;2024-03-22T04:32:18;54.05;;;24.48;;
53666;SDS011;39568;51.026;5.468;2024-03-22T04:34:45;43.75;;;20.85;;
53666;SDS011;39568;51.026;5.468;2024-03-22T04:37:10;50.88;;;25.08;;
53666;SDS011;39568;51.026;5.468;2024-03-22T04:39:37;46.85;;;25.27;;
53666;SDS011;39568;51.026;5.468;2024-03-22T04:42:05;42.22;;;23.25;;
53666;SDS011;39568;51.026;5.468;2024-03-22T04:44:32;45.92;;;22.92;;
53666;SDS011;39568;51.026;5.468;2024-03-22T04:46:58;41.90;;;20.90;;
53666;SDS011;39568;51.026;5.468;2024-03-22T04:49:24;42.63;;;21.98;;
53666;SDS011;39568;51.026;5.468;2024-03-22T04:51:50;46.03;;;21.73;;
53666;SDS011;39568;51.026;5.468;2024-03-22T04:54:16;36.65;;;21.80;;
53666;SDS011;39568;51.026;5.468;2024-03-22T04:56:42;38.00;;;20.23;;
53666;SDS011;39568;51.026;5.468;2024-03-22T04:59:09;47.90;;;25.35;;
53666;SDS011;39568;51.026;5.468;2024-03-22T05:01:35;36.05;;;18.88;;
53666;SDS011;39568;51.026;5.468;2024-03-22T05:04:01;42.40;;;21.90;;
53666;SDS011;39568;51.026;5.468;2024-03-22T05:06:27;40.58;;;20.60;;
53666;SDS011;39568;51.026;5.468;2024-03-22T05:08:53;27.05;;;13.55;;
53666;SDS011;39568;51.026;5.468;2024-03-22T05:11:19;39.55;;;20.10;;
53666;SDS011;39568;51.026;5.468;2024-03-22T05:13:44;30.00;;;15.00;;
53666;SDS011;39568;51.026;5.468;2024-03-22T05:16:13;36.97;;;14.90;;
53666;SDS011;39568;51.026;5.468;2024-03-22T05:18:38;34.47;;;19.80;;
53666;SDS011;39568;51.026;5.468;2024-03-22T05:21:05;30.88;;;17.65;;
53666;SDS011;39568;51.026;5.468;2024-03-22T05:23:30;32.75;;;16.70;;
53666;SDS011;39568;51.026;5.468;2024-03-22T05:25:57;30.88;;;15.20;;
53666;SDS011;39568;51.026;5.468;2024-03-22T05:28:24;36.58;;;16.23;;
53666;SDS011;39568;51.026;5.468;2024-03-22T05:30:51;26.33;;;12.48;;
53666;SDS011;39568;51.026;5.468;2024-03-22T05:33:18;17.65;;;10.55;;
53666;SDS011;39568;51.026;5.468;2024-03-22T05:35:44;36.17;;;16.90;;
53666;SDS011;39568;51.026;5.468;2024-03-22T05:38:09;21.40;;;13.50;;
53666;SDS011;39568;51.026;5.468;2024-03-22T05:40:36;38.20;;;15.70;;
53666;SDS011;39568;51.026;5.468;2024-03-22T05:43:03;27.67;;;13.63;;
53666;SDS011;39568;51.026;5.468;2024-03-22T05:45:30;31.33;;;15.00;;
53666;SDS011;39568;51.026;5.468;2024-03-22T05:47:55;20.23;;;11.55;;
53666;SDS011;39568;51.026;5.468;2024-03-22T05:50:23;19.65;;;11.02;;
53666;SDS011;39568;51.026;5.468;2024-03-22T05:52:49;24.60;;;12.63;;
53666;SDS011;39568;51.026;5.468;2024-03-22T05:55:15;25.63;;;14.40;;
53666;SDS011;39568;51.026;5.468;2024-03-22T05:57:40;41.08;;;15.35;;
53666;SDS011;39568;51.026;5.468;2024-03-22T06:00:07;27.58;;;12.48;;
53666;SDS011;39568;51.026;5.468;2024-03-22T06:02:33;31.17;;;14.18;;
53666;SDS011;39568;51.026;5.468;2024-03-22T06:05:00;33.28;;;15.23;;
53666;SDS011;39568;51.026;5.468;2024-03-22T06:07:27;29.60;;;17.67;;
53666;SDS011;39568;51.026;5.468;2024-03-22T06:09:53;30.77;;;15.55;;
53666;SDS011;39568;51.026;5.468;2024-03-22T06:12:18;23.10;;;14.43;;
53666;SDS011;39568;51.026;5.468;2024-03-22T06:14:47;23.02;;;11.75;;
53666;SDS011;39568;51.026;5.468;2024-03-22T06:17:13;30.70;;;15.43;;
53666;SDS011;39568;51.026;5.468;2024-03-22T06:19:40;30.30;;;13.57;;
53666;SDS011;39568;51.026;5.468;2024-03-22T06:22:06;34.50;;;13.75;;
53666;SDS011;39568;51.026;5.468;2024-03-22T06:24:34;28.30;;;17.50;;
53666;SDS011;39568;51.026;5.468;2024-03-22T06:26:59;34.15;;;16.83;;
53666;SDS011;39568;51.026;5.468;2024-03-22T06:29:26;23.55;;;12.05;;
53666;SDS011;39568;51.026;5.468;2024-03-22T06:31:51;29.25;;;16.77;;
53666;SDS011;39568;51.026;5.468;2024-03-22T06:34:18;28.65;;;16.92;;
53666;SDS011;39568;51.026;5.468;2024-03-22T06:36:43;30.48;;;13.38;;
53666;SDS011;39568;51.026;5.468;2024-03-22T06:39:09;35.53;;;15.40;;
53666;SDS011;39568;51.026;5.468;2024-03-22T06:41:36;29.05;;;15.07;;
53666;SDS011;39568;51.026;5.468;2024-03-22T06:44:03;30.85;;;14.52;;
53666;SDS011;39568;51.026;5.468;2024-03-22T06:46:28;31.38;;;15.15;;
53666;SDS011;39568;51.026;5.468;2024-03-22T06:48:55;28.85;;;15.40;;
53666;SDS011;39568;51.026;5.468;2024-03-22T06:51:21;33.25;;;17.70;;
53666;SDS011;39568;51.026;5.468;2024-03-22T06:53:47;26.55;;;15.70;;
53666;SDS011;39568;51.026;5.468;2024-03-22T06:56:13;32.42;;;15.75;;
53666;SDS011;39568;51.026;5.468;2024-03-22T06:58:41;28.90;;;17.70;;
53666;SDS011;39568;51.026;5.468;2024-03-22T07:01:06;24.52;;;14.32;;
53666;SDS011;39568;51.026;5.468;2024-03-22T07:03:33;26.88;;;12.88;;
53666;SDS011;39568;51.026;5.468;2024-03-22T07:05:58;30.27;;;14.77;;
53666;SDS011;39568;51.026;5.468;2024-03-22T07:08:25;28.40;;;15.75;;
53666;SDS011;39568;51.026;5.468;2024-03-22T07:10:51;29.40;;;13.82;;
53666;SDS011;39568;51.026;5.468;2024-03-22T07:13:18;23.10;;;11.82;;
53666;SDS011;39568;51.026;5.468;2024-03-22T07:15:45;24.92;;;14.38;;
53666;SDS011;39568;51.026;5.468;2024-03-22T07:18:12;29.25;;;14.85;;
53666;SDS011;39568;51.026;5.468;2024-03-22T07:20:38;24.42;;;13.88;;
53666;SDS011;39568;51.026;5.468;2024-03-22T07:23:04;28.70;;;13.00;;
53666;SDS011;39568;51.026;5.468;2024-03-22T07:25:30;21.63;;;10.70;;
53666;SDS011;39568;51.026;5.468;2024-03-22T07:27:56;27.67;;;13.77;;
53666;SDS011;39568;51.026;5.468;2024-03-22T07:30:21;19.20;;;10.82;;
53666;SDS011;39568;51.026;5.468;2024-03-22T07:32:49;28.17;;;11.30;;
53666;SDS011;39568;51.026;5.468;2024-03-22T07:35:15;20.73;;;13.98;;
53666;SDS011;39568;51.026;5.468;2024-03-22T07:37:41;26.50;;;13.48;;
53666;SDS011;39568;51.026;5.468;2024-03-22T07:40:07;20.70;;;12.65;;
53666;SDS011;39568;51.026;5.468;2024-03-22T07:42:33;23.00;;;12.57;;
53666;SDS011;39568;51.026;5.468;2024-03-22T07:44:59;44.42;;;15.88;;
53666;SDS011;39568;51.026;5.468;2024-03-22T07:47:25;23.48;;;11.68;;
53666;SDS011;39568;51.026;5.468;2024-03-22T07:49:53;16.95;;;12.07;;
53666;SDS011;39568;51.026;5.468;2024-03-22T07:52:19;29.80;;;15.05;;
53666;SDS011;39568;51.026;5.468;2024-03-22T07:54:45;34.30;;;13.30;;
53666;SDS011;39568;51.026;5.468;2024-03-22T07:57:11;16.08;;;11.07;;
53666;SDS011;39568;51.026;5.468;2024-03-22T07:59:36;21.55;;;12.10;;
53666;SDS011;39568;51.026;5.468;2024-03-22T08:02:03;29.30;;;13.73;;
53666;SDS011;39568;51.026;5.468;2024-03-22T08:04:29;18.77;;;11.40;;
53666;SDS011;39568;51.026;5.468;2024-03-22T08:06:56;20.38;;;12.18;;
53666;SDS011;39568;51.026;5.468;2024-03-22T08:09:23;26.55;;;12.32;;
53666;SDS011;39568;51.026;5.468;2024-03-22T08:11:49;31.50;;;15.45;;
53666;SDS011;39568;51.026;5.468;2024-03-22T08:14:14;21.70;;;10.32;;
53666;SDS011;39568;51.026;5.468;2024-03-22T08:16:41;21.88;;;14.05;;
53666;SDS011;39568;51.026;5.468;2024-03-22T08:19:07;17.02;;;11.18;;
53666;SDS011;39568;51.026;5.468;2024-03-22T08:21:33;18.13;;;12.02;;
53666;SDS011;39568;51.026;5.468;2024-03-22T08:24:00;19.27;;;11.70;;
53666;SDS011;39568;51.026;5.468;2024-03-22T08:26:27;29.63;;;12.45;;
53666;SDS011;39568;51.026;5.468;2024-03-22T08:28:52;22.25;;;11.40;;
53666;SDS011;39568;51.026;5.468;2024-03-22T08:31:19;20.35;;;11.55;;
53666;SDS011;39568;51.026;5.468;2024-03-22T08:33:50;24.88;;;12.73;;
53666;SDS011;39568;51.026;5.468;2024-03-22T08:36:17;15.95;;;8.90;;
53666;SDS011;39568;51.026;5.468;2024-03-22T08:38:42;21.85;;;11.82;;
53666;SDS011;39568;51.026;5.468;2024-03-22T08:41:10;17.02;;;9.23;;
53666;SDS011;39568;51.026;5.468;2024-03-22T08:43:36;16.25;;;9.05;;
53666;SDS011;39568;51.026;5.468;2024-03-22T08:46:02;14.38;;;10.15;;
53666;SDS011;39568;51.026;5.468;2024-03-22T08:48:28;20.95;;;9.55;;
53666;SDS011;39568;51.026;5.468;2024-03-22T08:50:55;18.17;;;10.23;;
53666;SDS011;39568;51.026;5.468;2024-03-22T08:53:20;12.32;;;8.68;;
53666;SDS011;39568;51.026;5.468;2024-03-22T08:55:47;14.98;;;8.80;;
53666;SDS011;39568;51.026;5.468;2024-03-22T08:58:14;13.98;;;9.27;;
53666;SDS011;39568;51.026;5.468;2024-03-22T09:00:42;17.73;;;9.77;;
53666;SDS011;39568;51.026;5.468;2024-03-22T09:03:07;22.88;;;10.65;;
53666;SDS011;39568;51.026;5.468;2024-03-22T09:05:34;25.48;;;10.52;;
53666;SDS011;39568;51.026;5.468;2024-03-22T09:07:59;16.65;;;9.50;;
53666;SDS011;39568;51.026;5.468;2024-03-22T09:10:26;14.50;;;8.93;;
53666;SDS011;39568;51.026;5.468;2024-03-22T09:12:51;22.48;;;9.60;;
53666;SDS011;39568;51.026;5.468;2024-03-22T09:15:19;11.65;;;9.10;;
53666;SDS011;39568;51.026;5.468;2024-03-22T09:17:44;14.57;;;9.98;;
53666;SDS011;39568;51.026;5.468;2024-03-22T09:20:11;10.73;;;8.55;;
53666;SDS011;39568;51.026;5.468;2024-03-22T09:22:37;10.43;;;7.72;;
53666;SDS011;39568;51.026;5.468;2024-03-22T09:25:04;11.13;;;9.85;;
53666;SDS011;39568;51.026;5.468;2024-03-22T09:27:30;18.20;;;8.48;;
53666;SDS011;39568;51.026;5.468;2024-03-22T09:29:57;11.27;;;7.30;;
53666;SDS011;39568;51.026;5.468;2024-03-22T09:32:24;9.88;;;7.60;;
53666;SDS011;39568;51.026;5.468;2024-03-22T09:34:51;11.70;;;8.20;;
53666;SDS011;39568;51.026;5.468;2024-03-22T09:37:17;22.67;;;10.15;;
53666;SDS011;39568;51.026;5.468;2024-03-22T09:39:43;13.70;;;9.23;;
53666;SDS011;39568;51.026;5.468;2024-03-22T09:42:10;12.02;;;9.35;;
53666;SDS011;39568;51.026;5.468;2024-03-22T09:44:39;11.48;;;8.27;;
53666;SDS011;39568;51.026;5.468;2024-03-22T09:47:07;11.50;;;7.90;;
53666;SDS011;39568;51.026;5.468;2024-03-22T09:49:35;15.15;;;8.93;;
53666;SDS011;39568;51.026;5.468;2024-03-22T09:52:01;11.30;;;8.18;;
53666;SDS011;39568;51.026;5.468;2024-03-22T09:54:28;16.83;;;11.13;;
53666;SDS011;39568;51.026;5.468;2024-03-22T09:56:54;17.75;;;7.88;;
53666;SDS011;39568;51.026;5.468;2024-03-22T09:59:22;9.23;;;6.40;;
53666;SDS011;39568;51.026;5.468;2024-03-22T10:01:47;9.65;;;8.07;;
53666;SDS011;39568;51.026;5.468;2024-03-22T10:04:14;10.23;;;8.20;;
53666;SDS011;39568;51.026;5.468;2024-03-22T10:06:41;21.98;;;10.18;;
53666;SDS011;39568;51.026;5.468;2024-03-22T10:09:07;10.15;;;8.40;;
53666;SDS011;39568;51.026;5.468;2024-03-22T10:11:34;9.82;;;5.20;;
53666;SDS011;39568;51.026;5.468;2024-03-22T10:14:00;11.93;;;8.82;;
53666;SDS011;39568;51.026;5.468;2024-03-22T10:16:32;15.13;;;9.20;;
53666;SDS011;39568;51.026;5.468;2024-03-22T10:18:59;11.55;;;8.07;;
53666;SDS011;39568;51.026;5.468;2024-03-22T10:21:24;12.13;;;7.47;;
53666;SDS011;39568;51.026;5.468;2024-03-22T10:23:54;15.73;;;9.07;;
53666;SDS011;39568;51.026;5.468;2024-03-22T10:26:19;13.73;;;9.82;;
53666;SDS011;39568;51.026;5.468;2024-03-22T10:28:46;16.90;;;8.55;;
53666;SDS011;39568;51.026;5.468;2024-03-22T10:31:11;11.90;;;7.82;;
53666;SDS011;39568;51.026;5.468;2024-03-22T10:33:38;11.82;;;7.80;;
53666;SDS011;39568;51.026;5.468;2024-03-22T10:36:03;11.35;;;7.38;;
53666;SDS011;39568;51.026;5.468;2024-03-22T10:38:30;14.55;;;8.43;;
53666;SDS011;39568;51.026;5.468;2024-03-22T10:40:59;11.05;;;8.23;;
53666;SDS011;39568;51.026;5.468;2024-03-22T10:43:26;11.52;;;7.28;;
53666;SDS011;39568;51.026;5.468;2024-03-22T10:45:51;17.90;;;9.80;;
53666;SDS011;39568;51.026;5.468;2024-03-22T10:48:18;18.10;;;6.93;;
53666;SDS011;39568;51.026;5.468;2024-03-22T10:50:45;11.90;;;7.55;;
53666;SDS011;39568;51.026;5.468;2024-03-22T10:53:12;18.10;;;8.25;;
53666;SDS011;39568;51.026;5.468;2024-03-22T10:55:39;13.45;;;8.75;;
53666;SDS011;39568;51.026;5.468;2024-03-22T10:58:09;10.60;;;8.07;;
53666;SDS011;39568;51.026;5.468;2024-03-22T11:00:41;24.30;;;8.75;;
53666;SDS011;39568;51.026;5.468;2024-03-22T11:03:08;13.35;;;8.98;;
53666;SDS011;39568;51.026;5.468;2024-03-22T11:05:33;8.45;;;7.00;;
53666;SDS011;39568;51.026;5.468;2024-03-22T11:08:00;16.52;;;9.73;;
53666;SDS011;39568;51.026;5.468;2024-03-22T11:10:28;11.45;;;8.00;;
53666;SDS011;39568;51.026;5.468;2024-03-22T11:12:55;13.05;;;8.32;;
53666;SDS011;39568;51.026;5.468;2024-03-22T11:15:21;8.10;;;7.18;;
53666;SDS011;39568;51.026;5.468;2024-03-22T11:17:48;15.80;;;8.98;;
53666;SDS011;39568;51.026;5.468;2024-03-22T11:20:14;14.35;;;8.68;;
53666;SDS011;39568;51.026;5.468;2024-03-22T11:22:41;13.95;;;7.72;;
53666;SDS011;39568;51.026;5.468;2024-03-22T11:25:06;9.98;;;6.90;;
53666;SDS011;39568;51.026;5.468;2024-03-22T11:27:33;15.85;;;9.13;;
53666;SDS011;39568;51.026;5.468;2024-03-22T11:29:58;16.23;;;9.82;;
53666;SDS011;39568;51.026;5.468;2024-03-22T11:32:26;14.00;;;6.60;;
53666;SDS011;39568;51.026;5.468;2024-03-22T11:34:51;19.00;;;10.05;;
53666;SDS011;39568;51.026;5.468;2024-03-22T11:37:18;10.18;;;8.65;;
53666;SDS011;39568;51.026;5.468;2024-03-22T11:39:43;14.70;;;6.78;;
53666;SDS011;39568;51.026;5.468;2024-03-22T11:42:10;13.70;;;8.77;;
53666;SDS011;39568;51.026;5.468;2024-03-22T11:44:36;13.90;;;7.63;;
53666;SDS011;39568;51.026;5.468;2024-03-22T11:47:03;18.85;;;8.60;;
53666;SDS011;39568;51.026;5.468;2024-03-22T11:49:30;16.17;;;7.75;;
53666;SDS011;39568;51.026;5.468;2024-03-22T11:51:57;22.77;;;11.05;;
53666;SDS011;39568;51.026;5.468;2024-03-22T11:54:22;16.77;;;8.77;;
53666;SDS011;39568;51.026;5.468;2024-03-22T11:56:49;20.13;;;10.65;;
53666;SDS011;39568;51.026;5.468;2024-03-22T11:59:15;7.53;;;6.45;;
53666;SDS011;39568;51.026;5.468;2024-03-22T12:01:41;12.60;;;6.72;;
53666;SDS011;39568;51.026;5.468;2024-03-22T12:04:07;16.67;;;9.80;;
53666;SDS011;39568;51.026;5.468;2024-03-22T12:06:35;14.95;;;8.82;;
53666;SDS011;39568;51.026;5.468;2024-03-22T12:09:00;12.82;;;7.97;;
53666;SDS011;39568;51.026;5.468;2024-03-22T12:11:28;13.65;;;8.52;;
53666;SDS011;39568;51.026;5.468;2024-03-22T12:13:54;16.05;;;7.90;;
53666;SDS011;39568;51.026;5.468;2024-03-22T12:16:20;9.80;;;6.75;;
53666;SDS011;39568;51.026;5.468;2024-03-22T12:18:45;9.40;;;7.97;;
53666;SDS011;39568;51.026;5.468;2024-03-22T12:21:12;14.82;;;9.15;;
53666;SDS011;39568;51.026;5.468;2024-03-22T12:23:39;11.65;;;7.90;;
53666;SDS011;39568;51.026;5.468;2024-03-22T12:26:05;18.13;;;7.10;;
53666;SDS011;39568;51.026;5.468;2024-03-22T12:28:32;13.00;;;7.70;;
53666;SDS011;39568;51.026;5.468;2024-03-22T12:30:58;13.88;;;8.45;;
53666;SDS011;39568;51.026;5.468;2024-03-22T12:33:24;16.77;;;8.10;;
53666;SDS011;39568;51.026;5.468;2024-03-22T12:35:50;12.93;;;8.27;;
53666;SDS011;39568;51.026;5.468;2024-03-22T12:38:15;16.15;;;10.90;;
53666;SDS011;39568;51.026;5.468;2024-03-22T12:40:44;22.17;;;11.88;;
53666;SDS011;39568;51.026;5.468;2024-03-22T12:43:09;22.65;;;11.45;;
53666;SDS011;39568;51.026;5.468;2024-03-22T12:45:36;14.10;;;8.48;;
53666;SDS011;39568;51.026;5.468;2024-03-22T12:48:02;15.00;;;6.53;;
53666;SDS011;39568;51.026;5.468;2024-03-22T12:50:29;16.40;;;9.40;;
53666;SDS011;39568;51.026;5.468;2024-03-22T12:52:55;18.23;;;9.43;;
53666;SDS011;39568;51.026;5.468;2024-03-22T12:55:22;15.48;;;9.57;;
53666;SDS011;39568;51.026;5.468;2024-03-22T12:57:49;12.05;;;8.43;;
53666;SDS011;39568;51.026;5.468;2024-03-22T13:00:15;20.02;;;11.35;;
53666;SDS011;39568;51.026;5.468;2024-03-22T13:02:44;14.85;;;9.35;;
53666;SDS011;39568;51.026;5.468;2024-03-22T13:05:11;16.75;;;8.45;;
53666;SDS011;39568;51.026;5.468;2024-03-22T13:07:37;16.45;;;9.48;;
53666;SDS011;39568;51.026;5.468;2024-03-22T13:10:03;25.45;;;12.07;;
53666;SDS011;39568;51.026;5.468;2024-03-22T13:12:29;20.05;;;10.63;;
53666;SDS011;39568;51.026;5.468;2024-03-22T13:14:57;17.90;;;10.25;;
53666;SDS011;39568;51.026;5.468;2024-03-22T13:17:23;27.95;;;13.43;;
53666;SDS011;39568;51.026;5.468;2024-03-22T13:19:49;21.40;;;8.82;;
53666;SDS011;39568;51.026;5.468;2024-03-22T13:22:15;18.25;;;9.75;;
53666;SDS011;39568;51.026;5.468;2024-03-22T13:24:43;23.95;;;10.27;;
53666;SDS011;39568;51.026;5.468;2024-03-22T13:27:09;24.70;;;12.90;;
53666;SDS011;39568;51.026;5.468;2024-03-22T13:29:35;14.57;;;10.07;;
53666;SDS011;39568;51.026;5.468;2024-03-22T13:32:02;12.00;;;8.55;;
53666;SDS011;39568;51.026;5.468;2024-03-22T13:34:29;18.85;;;10.07;;
53666;SDS011;39568;51.026;5.468;2024-03-22T13:36:56;24.38;;;12.75;;
53666;SDS011;39568;51.026;5.468;2024-03-22T13:39:22;21.30;;;13.80;;
53666;SDS011;39568;51.026;5.468;2024-03-22T13:41:48;18.55;;;9.98;;
53666;SDS011;39568;51.026;5.468;2024-03-22T13:44:15;28.13;;;13.52;;
53666;SDS011;39568;51.026;5.468;2024-03-22T13:46:40;26.35;;;12.95;;
53666;SDS011;39568;51.026;5.468;2024-03-22T13:49:12;12.95;;;8.23;;
53666;SDS011;39568;51.026;5.468;2024-03-22T13:51:38;23.05;;;12.52;;
53666;SDS011;39568;51.026;5.468;2024-03-22T13:54:05;29.90;;;13.88;;
53666;SDS011;39568;51.026;5.468;2024-03-22T13:56:30;15.65;;;10.80;;
53666;SDS011;39568;51.026;5.468;2024-03-22T13:58:56;28.30;;;13.93;;
53666;SDS011;39568;51.026;5.468;2024-03-22T14:01:22;24.85;;;11.73;;
53666;SDS011;39568;51.026;5.468;2024-03-22T14:03:48;24.20;;;10.32;;
53666;SDS011;39568;51.026;5.468;2024-03-22T14:06:15;21.00;;;10.88;;
53666;SDS011;39568;51.026;5.468;2024-03-22T14:08:42;23.40;;;12.88;;
53666;SDS011;39568;51.026;5.468;2024-03-22T14:11:07;33.25;;;13.57;;
53666;SDS011;39568;51.026;5.468;2024-03-22T14:13:34;18.42;;;10.88;;
53666;SDS011;39568;51.026;5.468;2024-03-22T14:15:59;20.13;;;11.05;;
53666;SDS011;39568;51.026;5.468;2024-03-22T14:18:27;21.85;;;9.23;;
53666;SDS011;39568;51.026;5.468;2024-03-22T14:20:52;18.15;;;8.93;;